Weather at Nötsch im Gailtal Airfield

Public forecast

Using degrees Celsius for public forecast. Weather courtesy of forecast.io.

Closest aviation weather report (METAR) to Nötsch im Gailtal Airfield

Closest report is Klagenfurt Airport, 29.5 nm (54.5 km) E.

2024/05/22 20:20 (retrieved 35 minutes ago)

LOWK 222020Z AUTO 05003KT 020V080 9999 FEW050 BKN070 15/12 Q1015 TEMPO SHRA

Closest aviation forecast (TAF) to Nötsch im Gailtal Airfield

Closest forecast is Klagenfurt Airport, 29.5 nm (54.5 km) E.

2024/05/22 20:53 Ammendment (retrieved 2 minutes ago)

TAF AMD LOWK 222048Z 2220/2318 VRB03KT 9999 SCT030 BKN070 TX20/2313Z TN11/2303Z TEMPO 2220/2223 -RA PROB40 TEMPO 2221/2307 BKN007 TEMPO 2310/2318 09008KT SHRA FEW030CB SCT040 PROB40 TEMPO 2312/2317 VRB15KT 3000 TSRA